createdAt,value
2019-01-17T00:01:56.005Z,6.37
2019-01-17T00:04:44.367Z,8.60
2019-01-17T00:07:51.262Z,7.97
2019-01-17T00:10:38.456Z,8.80
2019-01-17T00:13:35.749Z,8.40
2019-01-17T00:16:30.141Z,8.47
2019-01-17T00:19:18.443Z,7.60
2019-01-17T00:22:09.588Z,7.07
2019-01-17T00:24:57.206Z,7.70
2019-01-17T00:27:44.133Z,7.50
2019-01-17T00:30:23.668Z,8.47
2019-01-17T00:33:10.963Z,8.53
2019-01-17T00:36:17.766Z,8.33
2019-01-17T00:39:01.080Z,8.53
2019-01-17T00:41:49.474Z,8.53
2019-01-17T00:44:32.333Z,7.73
2019-01-17T00:47:20.029Z,8.60
2019-01-17T00:50:11.073Z,7.43
2019-01-17T00:52:56.891Z,7.60
2019-01-17T00:55:45.480Z,8.80
2019-01-17T00:58:36.830Z,7.40
2019-01-17T01:01:24.573Z,7.10
2019-01-17T01:04:10.785Z,6.70
2019-01-17T01:07:06.334Z,7.50
2019-01-17T01:10:00.030Z,7.90
2019-01-17T01:12:48.327Z,8.10
2019-01-17T01:15:39.361Z,7.33
2019-01-17T01:18:26.936Z,5.97
2019-01-17T01:21:04.587Z,7.87
2019-01-17T01:23:56.133Z,7.87
2019-01-17T01:26:44.428Z,7.93
2019-01-17T01:29:31.692Z,8.50
2019-01-17T01:32:26.009Z,7.07
2019-01-17T01:35:04.142Z,6.87
2019-01-17T01:37:58.443Z,7.40
2019-01-17T01:40:37.333Z,7.10
2019-01-17T01:43:18.307Z,7.30
2019-01-17T01:46:02.885Z,6.90
2019-01-17T01:48:42.549Z,7.80
2019-01-17T01:51:23.995Z,5.70
2019-01-17T01:53:53.320Z,6.57
2019-01-17T01:56:22.650Z,7.40
2019-01-17T01:58:52.003Z,6.23
2019-01-17T02:01:21.533Z,6.10
2019-01-17T02:03:51.009Z,6.10
2019-01-17T02:06:20.491Z,5.40
2019-01-17T02:08:49.873Z,5.50
2019-01-17T02:11:19.276Z,6.03
2019-01-17T02:13:49.415Z,5.87
2019-01-17T02:16:18.721Z,5.30
2019-01-17T02:18:48.146Z,5.40
2019-01-17T02:21:17.463Z,5.20
2019-01-17T02:23:46.771Z,5.30
2019-01-17T02:26:16.190Z,5.43
2019-01-17T02:28:45.546Z,6.23
2019-01-17T02:31:15.092Z,5.10
2019-01-17T02:33:44.473Z,5.30
2019-01-17T02:36:13.790Z,5.23
2019-01-17T02:38:43.118Z,4.70
2019-01-17T02:41:12.453Z,4.20
2019-01-17T02:43:41.855Z,4.40
2019-01-17T02:46:11.397Z,4.00
2019-01-17T02:48:40.858Z,4.47
2019-01-17T02:51:10.342Z,4.47
2019-01-17T02:53:40.097Z,4.60
2019-01-17T02:56:09.406Z,4.00
2019-01-17T02:58:38.743Z,4.17
2019-01-17T03:01:08.114Z,4.63
2019-01-17T03:03:37.434Z,3.80
2019-01-17T03:06:06.793Z,3.90
2019-01-17T03:08:36.327Z,4.33
2019-01-17T03:11:05.906Z,4.13
2019-01-17T03:13:35.418Z,3.73
2019-01-17T03:16:04.914Z,4.87
2019-01-17T03:18:34.382Z,4.33
2019-01-17T03:21:03.718Z,4.73
2019-01-17T03:23:32.990Z,3.97
2019-01-17T03:26:02.244Z,3.70
2019-01-17T03:28:31.646Z,4.20
2019-01-17T03:31:00.985Z,4.30
2019-01-17T03:33:30.366Z,4.77
2019-01-17T03:35:59.675Z,3.60
2019-01-17T03:38:29.022Z,4.33
2019-01-17T03:40:58.378Z,4.40
2019-01-17T03:43:27.843Z,4.50
2019-01-17T03:45:57.425Z,4.37
2019-01-17T03:48:26.931Z,3.40
2019-01-17T03:50:56.602Z,4.47
2019-01-17T03:53:26.010Z,3.73
2019-01-17T03:55:55.606Z,4.03
2019-01-17T03:58:24.999Z,3.50
2019-01-17T04:00:54.397Z,4.20
2019-01-17T04:03:23.702Z,4.87
2019-01-17T04:05:53.002Z,4.23
2019-01-17T04:08:22.366Z,3.77
2019-01-17T04:10:51.910Z,3.60
2019-01-17T04:13:22.686Z,3.60
2019-01-17T04:15:52.026Z,4.43
2019-01-17T04:18:21.514Z,4.03
2019-01-17T04:20:51.318Z,3.90
2019-01-17T04:23:20.615Z,3.93
2019-01-17T04:25:50.333Z,3.50
2019-01-17T04:28:19.785Z,2.67
2019-01-17T04:30:49.133Z,3.60
2019-01-17T04:33:18.665Z,2.13
2019-01-17T04:35:48.143Z,2.70
2019-01-17T04:38:17.531Z,2.20
2019-01-17T04:40:46.855Z,2.80
2019-01-17T04:43:16.309Z,2.40
2019-01-17T04:45:45.687Z,2.80
2019-01-17T04:48:15.057Z,2.40
2019-01-17T04:50:44.542Z,2.27
2019-01-17T04:53:13.996Z,4.30
2019-01-17T04:55:43.642Z,2.53
2019-01-17T04:58:13.094Z,3.20
2019-01-17T05:00:42.448Z,2.63
2019-01-17T05:03:11.880Z,7.70
2019-01-17T05:05:41.241Z,4.00
2019-01-17T05:08:10.629Z,3.40
2019-01-17T05:10:39.945Z,2.83
2019-01-17T05:13:09.358Z,4.07
2019-01-17T05:15:38.748Z,3.40
2019-01-17T05:18:08.085Z,3.70
2019-01-17T05:20:37.514Z,4.00
2019-01-17T05:23:06.956Z,3.37
2019-01-17T05:25:36.573Z,4.10
2019-01-17T05:28:05.841Z,3.90
2019-01-17T05:30:35.490Z,4.00
2019-01-17T05:33:05.006Z,4.43
2019-01-17T05:35:34.515Z,4.83
2019-01-17T05:38:04.078Z,4.40
2019-01-17T05:40:33.535Z,5.83
2019-01-17T05:43:03.186Z,4.80
2019-01-17T05:45:32.661Z,4.30
2019-01-17T05:48:02.193Z,4.70
2019-01-17T05:50:31.607Z,6.20
2019-01-17T05:53:01.077Z,4.10
2019-01-17T05:55:30.430Z,4.53
2019-01-17T05:57:59.760Z,4.97
2019-01-17T06:00:29.175Z,5.97
2019-01-17T06:02:58.514Z,3.77
2019-01-17T06:05:28.014Z,3.47
2019-01-17T06:07:57.560Z,2.87
2019-01-17T06:10:26.989Z,3.27
2019-01-17T06:12:56.614Z,4.10
2019-01-17T06:15:26.354Z,3.20
2019-01-17T06:17:56.032Z,7.30
2019-01-17T06:20:25.440Z,5.43
2019-01-17T06:22:54.856Z,7.60
2019-01-17T06:25:28.205Z,4.40
2019-01-17T06:27:55.620Z,5.10
2019-01-17T06:30:25.047Z,5.30
2019-01-17T06:32:54.721Z,6.17
2019-01-17T06:35:24.033Z,6.20
2019-01-17T06:37:53.418Z,6.30
2019-01-17T06:40:28.759Z,7.90
2019-01-17T06:42:58.193Z,9.83
2019-01-17T06:45:27.863Z,8.43
2019-01-17T06:47:57.171Z,8.20
2019-01-17T06:50:26.713Z,6.33
2019-01-17T06:52:56.113Z,7.07
2019-01-17T06:55:25.688Z,6.00
2019-01-17T06:57:54.974Z,7.20
2019-01-17T07:00:24.389Z,8.03
2019-01-17T07:02:53.684Z,9.30
2019-01-17T07:05:23.682Z,9.10
2019-01-17T07:07:53.033Z,9.53
2019-01-17T07:10:22.552Z,7.77
2019-01-17T07:12:51.920Z,7.67
2019-01-17T07:15:21.314Z,6.90
2019-01-17T07:17:50.828Z,8.40
2019-01-17T07:20:20.719Z,8.27
2019-01-17T07:22:50.088Z,7.87
2019-01-17T07:25:19.462Z,8.87
2019-01-17T07:27:48.828Z,7.87
2019-01-17T07:30:20.467Z,8.97
2019-01-17T07:32:49.973Z,10.20
2019-01-17T07:35:19.380Z,11.10
2019-01-17T07:37:48.969Z,9.97
2019-01-17T07:40:18.408Z,11.97
2019-01-17T07:42:47.810Z,9.50
2019-01-17T07:45:23.264Z,10.50
2019-01-17T07:47:52.542Z,9.10
2019-01-17T07:50:21.853Z,10.27
2019-01-17T07:52:51.243Z,10.50
2019-01-17T07:55:20.592Z,9.40
2019-01-17T07:57:50.137Z,9.80
2019-01-17T08:00:21.601Z,9.30
2019-01-17T08:02:51.103Z,9.73
2019-01-17T08:05:20.637Z,9.83
2019-01-17T08:07:49.933Z,9.10
2019-01-17T08:10:20.130Z,7.70
2019-01-17T08:12:49.711Z,6.53
2019-01-17T08:15:19.297Z,6.20
2019-01-17T08:17:48.716Z,6.90
2019-01-17T08:20:20.748Z,7.40
2019-01-17T08:22:50.094Z,6.43
2019-01-17T08:25:19.733Z,5.30
2019-01-17T08:27:49.059Z,4.87
2019-01-17T08:30:20.953Z,5.47
2019-01-17T08:32:50.358Z,5.10
2019-01-17T08:35:19.908Z,5.27
2019-01-17T08:37:49.442Z,6.13
2019-01-17T08:40:27.130Z,6.10
2019-01-17T08:42:56.565Z,6.27
2019-01-17T08:45:25.902Z,6.47
2019-01-17T08:47:55.499Z,6.27
2019-01-17T08:50:25.034Z,6.43
2019-01-17T08:52:54.564Z,7.30
2019-01-17T08:55:23.948Z,8.27
2019-01-17T08:57:53.596Z,7.20
2019-01-17T09:00:24.334Z,6.97
2019-01-17T09:02:53.899Z,6.60
2019-01-17T09:05:23.614Z,6.53
2019-01-17T09:07:53.137Z,8.40
2019-01-17T09:10:27.891Z,7.40
2019-01-17T09:12:57.386Z,8.30
2019-01-17T09:15:31.937Z,10.23
2019-01-17T09:18:01.340Z,10.70
2019-01-17T09:20:30.709Z,9.53
2019-01-17T09:23:00.107Z,10.10
2019-01-17T09:25:29.702Z,10.60
2019-01-17T09:27:59.128Z,10.93
2019-01-17T09:30:28.555Z,10.73
2019-01-17T09:32:58.271Z,13.00
2019-01-17T09:35:27.700Z,13.00
2019-01-17T09:37:57.287Z,12.33
2019-01-17T09:40:26.708Z,11.80
2019-01-17T09:42:56.337Z,11.13
2019-01-17T09:45:26.015Z,12.80
2019-01-17T09:47:55.403Z,12.50
2019-01-17T09:50:25.992Z,9.90
2019-01-17T09:52:55.565Z,12.17
2019-01-17T09:55:25.035Z,9.97
2019-01-17T09:57:54.682Z,9.40
2019-01-17T10:00:31.726Z,10.10
2019-01-17T10:03:01.111Z,8.90
2019-01-17T10:05:30.680Z,10.00
2019-01-17T10:08:00.074Z,10.07
2019-01-17T10:10:29.939Z,9.80
2019-01-17T10:12:59.576Z,8.80
2019-01-17T10:16:10.202Z,9.83
2019-01-17T10:19:09.502Z,8.83
2019-01-17T10:22:30.495Z,9.80
2019-01-17T10:25:44.071Z,7.70
2019-01-17T10:28:39.095Z,8.80
2019-01-17T10:31:50.704Z,9.07
2019-01-17T10:35:09.945Z,8.67
2019-01-17T10:38:22.238Z,7.17
2019-01-17T10:41:31.697Z,7.03
2019-01-17T10:44:45.077Z,6.00
2019-01-17T10:48:03.426Z,6.03
2019-01-17T10:51:23.318Z,5.00
2019-01-17T10:54:44.622Z,4.20
2019-01-17T10:57:51.718Z,4.50
2019-01-17T11:01:00.963Z,3.90
2019-01-17T11:04:10.973Z,4.20
2019-01-17T11:07:31.042Z,3.07
2019-01-17T11:10:47.602Z,4.10
2019-01-17T11:14:00.345Z,3.93
2019-01-17T11:17:06.645Z,3.70
2019-01-17T11:19:59.435Z,2.37
2019-01-17T11:22:48.969Z,3.97
2019-01-17T11:25:41.177Z,3.70
2019-01-17T11:28:48.618Z,2.80
2019-01-17T11:31:44.823Z,2.70
2019-01-17T11:35:07.406Z,3.00
2019-01-17T11:38:29.855Z,3.37
2019-01-17T11:41:46.562Z,2.57
2019-01-17T11:44:44.426Z,3.27
2019-01-17T11:47:52.563Z,2.40
2019-01-17T11:50:58.983Z,1.90
2019-01-17T11:54:12.805Z,1.97
2019-01-17T11:57:18.934Z,1.63
2019-01-17T12:00:26.779Z,2.03
2019-01-17T12:03:28.185Z,2.30
2019-01-17T12:05:57.831Z,11.90
2019-01-17T12:08:27.229Z,2.90
2019-01-17T12:10:56.702Z,1.57
2019-01-17T12:13:26.101Z,2.47
2019-01-17T12:15:55.586Z,1.63
2019-01-17T12:18:25.087Z,1.60
2019-01-17T12:20:54.669Z,1.90
2019-01-17T12:23:24.015Z,2.73
2019-01-17T12:25:53.405Z,1.90
2019-01-17T12:28:22.967Z,1.43
2019-01-17T12:30:52.238Z,2.90
2019-01-17T12:33:21.750Z,1.23
2019-01-17T12:35:51.313Z,1.43
2019-01-17T12:38:20.829Z,1.20
2019-01-17T12:40:50.377Z,1.43
2019-01-17T12:43:19.763Z,1.73
2019-01-17T12:45:49.200Z,1.40
2019-01-17T12:48:18.703Z,1.50
2019-01-17T12:50:49.086Z,2.60
2019-01-17T12:53:18.558Z,1.43
2019-01-17T12:55:47.971Z,1.20
2019-01-17T12:58:17.448Z,1.60
2019-01-17T13:00:46.954Z,1.77
2019-01-17T13:03:16.517Z,1.90
2019-01-17T13:05:46.004Z,1.30
2019-01-17T13:08:15.681Z,1.37
2019-01-17T13:10:45.179Z,1.40
2019-01-17T13:13:14.563Z,2.00
2019-01-17T13:15:44.311Z,2.20
2019-01-17T13:18:13.696Z,1.97
2019-01-17T13:20:43.506Z,1.90
2019-01-17T13:23:12.955Z,1.63
2019-01-17T13:25:42.619Z,1.80
2019-01-17T13:28:12.306Z,1.53
2019-01-17T13:30:41.888Z,1.47
2019-01-17T13:33:11.488Z,2.50
2019-01-17T13:35:40.885Z,2.03
2019-01-17T13:38:10.338Z,2.27
2019-01-17T13:40:39.849Z,2.07
2019-01-17T13:43:09.266Z,2.10
2019-01-17T13:45:38.754Z,2.77
2019-01-17T13:48:08.153Z,2.47
2019-01-17T13:50:37.729Z,2.50
2019-01-17T13:53:07.214Z,2.60
2019-01-17T13:55:36.639Z,2.10
2019-01-17T13:58:06.146Z,5.83
2019-01-17T14:00:35.606Z,2.60
2019-01-17T14:03:05.228Z,3.30
2019-01-17T14:05:34.571Z,2.60
2019-01-17T14:08:04.057Z,2.47
2019-01-17T14:10:33.567Z,2.90
2019-01-17T14:13:03.098Z,3.00
2019-01-17T14:15:32.733Z,2.97
2019-01-17T14:18:02.159Z,3.50
2019-01-17T14:20:31.563Z,2.57
2019-01-17T14:23:01.038Z,2.60
2019-01-17T14:25:30.533Z,3.10
2019-01-17T14:27:59.953Z,2.83
2019-01-17T14:30:31.148Z,3.20
2019-01-17T14:33:00.806Z,2.63
2019-01-17T14:35:30.348Z,3.20
2019-01-17T14:37:59.899Z,3.30
2019-01-17T14:40:29.442Z,3.20
2019-01-17T14:42:58.952Z,3.40
2019-01-17T14:45:28.563Z,3.57
2019-01-17T14:47:58.048Z,4.50
2019-01-17T14:50:29.567Z,4.27
2019-01-17T14:52:59.057Z,4.77
2019-01-17T14:55:28.510Z,5.70
2019-01-17T14:57:58.195Z,5.80
2019-01-17T15:00:32.845Z,7.23
2019-01-17T15:03:02.278Z,6.00
2019-01-17T15:05:31.883Z,6.47
2019-01-17T15:08:01.365Z,5.77
2019-01-17T15:10:36.596Z,6.90
2019-01-17T15:13:07.931Z,6.43
2019-01-17T15:15:37.438Z,5.80
2019-01-17T15:18:07.690Z,8.50
2019-01-17T15:20:37.368Z,7.70
2019-01-17T15:23:08.458Z,6.97
2019-01-17T15:25:37.962Z,7.43
2019-01-17T15:28:07.607Z,7.07
2019-01-17T15:30:37.102Z,7.33
2019-01-17T15:33:06.684Z,8.07
2019-01-17T15:35:36.316Z,7.60
2019-01-17T15:38:06.150Z,8.00
2019-01-17T15:40:35.746Z,7.20
2019-01-17T15:43:05.624Z,7.50
2019-01-17T15:45:35.208Z,7.20
2019-01-17T15:48:04.994Z,7.23
2019-01-17T15:50:34.497Z,11.03
2019-01-17T15:53:04.002Z,6.77
2019-01-17T15:55:33.546Z,6.00
2019-01-17T15:58:03.011Z,8.00
2019-01-17T16:00:33.287Z,6.20
2019-01-17T16:03:02.852Z,5.00
2019-01-17T16:05:32.459Z,6.70
2019-01-17T16:08:02.078Z,7.00
2019-01-17T16:10:31.739Z,6.27
2019-01-17T16:13:01.262Z,6.30
2019-01-17T16:15:30.916Z,10.53
2019-01-17T16:18:00.482Z,6.67
2019-01-17T16:20:30.130Z,8.70
2019-01-17T16:22:59.679Z,8.37
2019-01-17T16:25:29.778Z,7.40
2019-01-17T16:27:59.217Z,7.10
2019-01-17T16:30:30.793Z,6.43
2019-01-17T16:33:00.718Z,6.30
2019-01-17T16:35:30.356Z,7.23
2019-01-17T16:38:00.249Z,6.40
2019-01-17T16:40:30.170Z,5.80
2019-01-17T16:42:59.676Z,8.40
2019-01-17T16:45:35.429Z,7.23
2019-01-17T16:48:00.861Z,8.90
2019-01-17T16:50:30.585Z,5.23
2019-01-17T16:53:00.538Z,5.43
2019-01-17T16:55:30.239Z,5.37
2019-01-17T16:57:59.885Z,4.90
2019-01-17T17:00:35.369Z,4.43
2019-01-17T17:03:05.144Z,4.60
2019-01-17T17:05:34.735Z,4.83
2019-01-17T17:08:04.256Z,4.50
2019-01-17T17:10:34.258Z,4.60
2019-01-17T17:13:04.272Z,4.70
2019-01-17T17:15:33.879Z,4.00
2019-01-17T17:18:03.500Z,4.10
2019-01-17T17:20:33.198Z,4.90
2019-01-17T17:23:02.848Z,4.40
2019-01-17T17:25:32.711Z,3.80
2019-01-17T17:28:02.501Z,3.90
2019-01-17T17:30:32.007Z,5.53
2019-01-17T17:33:01.983Z,3.53
2019-01-17T17:35:31.624Z,4.30
2019-01-17T17:38:02.198Z,3.73
2019-01-17T17:40:32.491Z,4.87
2019-01-17T17:43:02.189Z,5.00
2019-01-17T17:45:33.350Z,4.47
2019-01-17T17:48:03.487Z,4.47
2019-01-17T17:50:33.026Z,4.07
2019-01-17T17:53:02.801Z,4.97
2019-01-17T17:55:32.415Z,4.20
2019-01-17T17:58:02.460Z,5.30
2019-01-17T18:00:50.996Z,4.30
2019-01-17T18:03:20.574Z,6.90
2019-01-17T18:05:50.456Z,6.47
2019-01-17T18:08:20.350Z,5.50
2019-01-17T18:10:50.179Z,4.70
2019-01-17T18:13:20.144Z,5.00
2019-01-17T18:15:49.970Z,6.07
2019-01-17T18:18:19.718Z,5.13
2019-01-17T18:20:49.397Z,5.40
2019-01-17T18:23:19.161Z,5.53
2019-01-17T18:25:48.921Z,5.67
2019-01-17T18:28:18.547Z,5.50
2019-01-17T18:30:48.272Z,5.70
2019-01-17T18:33:18.179Z,6.37
2019-01-17T18:35:47.773Z,5.57
2019-01-17T18:38:19.419Z,7.30
2019-01-17T18:40:49.486Z,6.27
2019-01-17T18:43:19.299Z,6.20
2019-01-17T18:45:49.093Z,6.67
2019-01-17T18:48:18.720Z,7.43
2019-01-17T18:50:48.581Z,6.53
2019-01-17T18:53:18.313Z,7.03
2019-01-17T18:55:48.056Z,8.70
2019-01-17T18:58:18.575Z,8.60
2019-01-17T19:00:49.162Z,7.73
2019-01-17T19:03:19.037Z,8.20
2019-01-17T19:05:49.471Z,7.80
2019-01-17T19:08:21.525Z,8.17
2019-01-17T19:10:52.417Z,8.57
2019-01-17T19:13:24.131Z,9.27
2019-01-17T19:15:57.578Z,8.07
2019-01-17T19:18:28.697Z,9.10
2019-01-17T19:21:00.332Z,9.60
2019-01-17T19:23:32.168Z,10.63
2019-01-17T19:26:03.638Z,10.30
2019-01-17T19:28:34.628Z,10.33
2019-01-17T19:31:05.159Z,11.90
2019-01-17T19:33:37.000Z,10.80
2019-01-17T19:36:08.353Z,10.63
2019-01-17T19:38:41.281Z,10.37
2019-01-17T19:41:12.550Z,8.40
2019-01-17T19:43:44.988Z,6.57
2019-01-17T19:46:14.913Z,6.60
2019-01-17T19:48:46.486Z,6.40
2019-01-17T19:51:18.581Z,5.17
2019-01-17T19:53:48.890Z,6.83
2019-01-17T19:56:19.383Z,5.93
2019-01-17T19:58:50.327Z,6.13
2019-01-17T20:01:21.638Z,6.43
2019-01-17T20:03:53.000Z,4.90
2019-01-17T20:06:24.008Z,5.03
2019-01-17T20:08:54.928Z,5.43
2019-01-17T20:11:26.128Z,5.80
2019-01-17T20:13:56.370Z,5.60
2019-01-17T20:16:26.975Z,6.10
2019-01-17T20:18:58.251Z,6.90
2019-01-17T20:21:30.254Z,6.30
2019-01-17T20:24:02.185Z,7.10
2019-01-17T20:26:32.511Z,5.90
2019-01-17T20:29:03.359Z,7.67
2019-01-17T20:31:35.285Z,7.00
2019-01-17T20:34:06.252Z,7.80
2019-01-17T20:36:36.519Z,7.10
2019-01-17T20:39:08.486Z,11.10
2019-01-17T20:41:40.209Z,9.00
2019-01-17T20:44:11.914Z,8.80
2019-01-17T20:46:42.493Z,11.10
2019-01-17T20:49:12.507Z,9.40
2019-01-17T20:51:43.635Z,10.93
2019-01-17T20:54:14.006Z,10.17
2019-01-17T20:56:47.021Z,10.13
2019-01-17T20:59:17.444Z,9.47
2019-01-17T21:02:10.892Z,13.50
2019-01-17T21:04:42.318Z,9.73
2019-01-17T21:07:12.889Z,10.00
2019-01-17T21:09:43.543Z,9.93
2019-01-17T21:12:13.402Z,9.93
2019-01-17T21:14:43.724Z,10.70
2019-01-17T21:17:14.079Z,10.60
2019-01-17T21:19:43.802Z,10.60
2019-01-17T21:22:13.469Z,10.37
2019-01-17T21:24:43.257Z,10.60
2019-01-17T21:27:12.814Z,10.80
2019-01-17T21:29:45.340Z,10.77
2019-01-17T21:32:15.239Z,10.57
2019-01-17T21:34:45.227Z,9.20
2019-01-17T21:37:14.887Z,10.57
2019-01-17T21:39:44.943Z,10.10
2019-01-17T21:42:14.569Z,9.90
2019-01-17T21:44:44.308Z,9.23
2019-01-17T21:47:13.847Z,8.20
2019-01-17T21:49:43.344Z,8.57
2019-01-17T21:52:13.051Z,6.63
2019-01-17T21:54:42.821Z,8.37
2019-01-17T21:57:12.702Z,8.20
2019-01-17T21:59:42.293Z,7.90
2019-01-17T22:02:11.858Z,7.13
2019-01-17T22:04:41.498Z,7.63
2019-01-17T22:07:11.417Z,8.17
2019-01-17T22:09:41.017Z,8.00
2019-01-17T22:12:10.657Z,8.00
2019-01-17T22:14:40.400Z,7.90
2019-01-17T22:17:10.057Z,9.90
2019-01-17T22:19:39.599Z,7.13
2019-01-17T22:22:09.492Z,7.20
2019-01-17T22:24:39.053Z,8.47
2019-01-17T22:27:08.652Z,6.43
2019-01-17T22:29:38.520Z,7.90
2019-01-17T22:32:08.113Z,7.00
2019-01-17T22:34:37.628Z,6.40
2019-01-17T22:37:07.142Z,6.80
2019-01-17T22:39:36.659Z,6.40
2019-01-17T22:42:06.235Z,8.10
2019-01-17T22:44:35.946Z,7.13
2019-01-17T22:47:05.524Z,7.77
2019-01-17T22:49:35.044Z,8.00
2019-01-17T22:52:04.710Z,7.70
2019-01-17T22:54:34.192Z,7.87
2019-01-17T22:57:03.664Z,9.40
2019-01-17T22:59:33.133Z,7.67
2019-01-17T23:02:03.497Z,8.10
2019-01-17T23:04:33.103Z,8.37
2019-01-17T23:07:02.470Z,7.70
2019-01-17T23:09:32.100Z,7.33
2019-01-17T23:12:01.597Z,6.97
2019-01-17T23:14:31.276Z,9.80
2019-01-17T23:17:00.830Z,9.80
2019-01-17T23:19:30.366Z,8.50
2019-01-17T23:21:59.799Z,9.63
2019-01-17T23:24:29.238Z,8.13
2019-01-17T23:26:58.630Z,10.30
2019-01-17T23:29:28.106Z,9.77
2019-01-17T23:31:57.534Z,9.70
2019-01-17T23:34:26.970Z,10.30
2019-01-17T23:36:56.348Z,9.17
2019-01-17T23:39:28.142Z,10.27
2019-01-17T23:41:57.562Z,10.70
2019-01-17T23:44:26.921Z,10.80
2019-01-17T23:46:56.337Z,9.93
2019-01-17T23:49:25.705Z,10.37
2019-01-17T23:51:55.091Z,11.90
2019-01-17T23:54:24.454Z,11.47
2019-01-17T23:56:53.808Z,12.67
2019-01-17T23:59:23.113Z,14.73
